Time;durP1;ratioP1;P1;durP2;ratioP2;P2;SDS_P1;SDS_P2;PMS_P1;PMS_P2;Temp;Humidity;BMP_temperature;BMP_pressure;BME280_temperature;BME280_humidity;BME280_pressure;Samples;Min_cycle;Max_cycle;Signal;HPM_P1;HPM_P2
2022/06/19 04:01:52;;;;;;;11.27;3.40;;;20.80;96.30;;;;;;5355818;23;20494;-78
2022/06/19 04:04:18;;;;;;;9.97;2.73;;;21.00;95.50;;;;;;5040000;28;20410;-79
2022/06/19 04:06:43;;;;;;;16.73;3.13;;;21.20;94.90;;;;;;5036126;28;20172;-78
2022/06/19 04:09:13;;;;;;;8.80;3.23;;;21.30;94.60;;;;;;5053350;28;20194;-78
2022/06/19 04:11:38;;;;;;;14.10;3.80;;;21.40;94.70;;;;;;5041620;28;20198;-78
2022/06/19 04:14:04;;;;;;;12.47;3.33;;;21.50;94.50;;;;;;5034966;28;20767;-80
2022/06/19 04:16:32;;;;;;;16.23;3.90;;;21.70;93.10;;;;;;5027985;28;20208;-80
2022/06/19 04:18:59;;;;;;;16.80;3.80;;;21.90;92.10;;;;;;5029042;28;20176;-80
2022/06/19 04:47:18;;;;;;;8.90;2.90;;;24.30;86.30;;;;;;5227754;22;20488;-81
2022/06/19 04:49:44;;;;;;;10.97;3.10;;;24.70;84.80;;;;;;4993397;28;20423;-78
2022/06/19 04:52:09;;;;;;;14.90;3.63;;;24.70;85.50;;;;;;4993535;28;20231;-78
2022/06/19 04:54:35;;;;;;;10.93;3.00;;;25.20;84.60;;;;;;4993819;28;20633;-78
2022/06/19 04:57:00;;;;;;;11.90;3.70;;;25.20;84.30;;;;;;4993787;28;20177;-78
2022/06/19 04:59:26;;;;;;;13.93;4.27;;;25.60;83.70;;;;;;5001389;28;20548;-80
2022/06/19 05:01:51;;;;;;;12.30;3.47;;;25.80;82.70;;;;;;5487049;23;20501;-80
2022/06/19 05:04:17;;;;;;;17.47;3.03;;;26.20;82.10;;;;;;5047757;28;20182;-80
2022/06/19 05:06:43;;;;;;;10.17;3.80;;;26.00;83.10;;;;;;5063218;28;20175;-80
2022/06/19 05:09:08;;;;;;;10.57;3.47;;;25.90;82.60;;;;;;5048192;28;20452;-80
2022/06/19 05:11:34;;;;;;;14.67;3.70;;;25.90;82.70;;;;;;5024682;28;20609;-80
2022/06/19 05:14:01;;;;;;;10.87;4.17;;;26.20;82.40;;;;;;5016239;28;20168;-80
2022/06/19 05:16:27;;;;;;;14.73;4.03;;;26.30;81.80;;;;;;5017355;28;20589;-80
2022/06/19 05:18:54;;;;;;;8.50;2.90;;;26.10;82.50;;;;;;5017805;28;20435;-80
2022/06/19 05:21:21;;;;;;;9.37;3.40;;;26.50;81.80;;;;;;5018075;28;20196;-80
2022/06/19 05:23:48;;;;;;;6.73;2.67;;;26.60;81.60;;;;;;5017176;28;20773;-80
2022/06/19 05:26:18;;;;;;;18.57;3.30;;;26.60;80.60;;;;;;5019260;28;20415;-81
2022/06/19 05:28:45;;;;;;;9.40;2.73;;;27.00;78.40;;;;;;5019473;28;20426;-81
2022/06/19 05:31:11;;;;;;;14.70;3.07;;;27.50;78.00;;;;;;5019608;28;20423;-80
2022/06/19 05:33:37;;;;;;;11.30;3.40;;;27.60;76.50;;;;;;5000060;28;20415;-80
2022/06/19 05:36:03;;;;;;;11.17;2.93;;;28.00;75.20;;;;;;5019849;28;20756;-81
2022/06/19 05:38:29;;;;;;;7.70;3.43;;;28.20;74.80;;;;;;5019199;28;20180;-81
2022/06/19 05:40:57;;;;;;;13.33;3.07;;;28.30;73.90;;;;;;5019464;28;20493;-81
2022/06/19 05:43:24;;;;;;;18.03;3.43;;;28.90;72.30;;;;;;5019751;28;20172;-81
2022/06/19 05:46:05;;;;;;;12.07;3.27;;;29.10;70.80;;;;;;5020092;28;20550;-81
2022/06/19 05:48:31;;;;;;;16.10;2.80;;;29.30;69.80;;;;;;5018657;28;20395;-81
2022/06/19 05:51:08;;;;;;;13.40;3.00;;;29.60;68.90;;;;;;5017700;28;20788;-81
2022/06/19 05:53:38;;;;;;;11.17;2.60;;;29.80;68.30;;;;;;5000653;28;20187;-82
2022/06/19 05:56:04;;;;;;;12.90;2.70;;;29.60;67.90;;;;;;4998567;28;20462;-81
2022/06/19 05:58:30;;;;;;;8.03;3.43;;;29.90;67.70;;;;;;5002713;28;20415;-81
2022/06/19 06:00:56;;;;;;;14.80;2.80;;;30.70;66.40;;;;;;5022214;28;20529;-81
2022/06/19 06:03:23;;;;;;;14.83;2.77;;;30.70;65.70;;;;;;5022745;28;20439;-81
2022/06/19 06:05:49;;;;;;;23.93;3.80;;;30.60;65.30;;;;;;5020824;28;20179;-81
2022/06/19 06:08:15;;;;;;;13.47;3.20;;;30.80;64.80;;;;;;5020951;28;20407;-81
2022/06/19 06:10:41;;;;;;;12.03;2.83;;;31.20;64.30;;;;;;5004579;28;20435;-82
2022/06/19 06:13:07;;;;;;;20.63;3.03;;;30.90;64.00;;;;;;5006674;28;20423;-81
2022/06/19 06:15:33;;;;;;;15.80;3.60;;;31.10;63.70;;;;;;5006392;28;20190;-81
2022/06/19 06:18:00;;;;;;;15.97;3.00;;;31.10;64.10;;;;;;5024492;28;20490;-81
2022/06/19 06:20:26;;;;;;;7.20;2.70;;;31.40;63.00;;;;;;5023155;28;20188;-82
2022/06/19 06:22:52;;;;;;;14.93;3.20;;;31.50;62.60;;;;;;5020235;28;20180;-82
2022/06/19 06:25:17;;;;;;;9.80;3.43;;;31.80;62.50;;;;;;5020049;28;20407;-82
2022/06/19 06:27:43;;;;;;;18.50;3.10;;;31.20;63.10;;;;;;5004340;28;20207;-81
2022/06/19 06:30:10;;;;;;;7.50;2.93;;;31.90;62.50;;;;;;5023443;28;20230;-81
2022/06/19 06:32:36;;;;;;;12.53;2.73;;;31.80;62.90;;;;;;5022552;28;20644;-81
2022/06/19 06:35:02;;;;;;;15.10;2.97;;;31.90;62.20;;;;;;5004783;28;20430;-81
2022/06/19 06:37:27;;;;;;;9.63;3.23;;;32.20;61.60;;;;;;5004209;28;20208;-81
2022/06/19 06:39:53;;;;;;;8.97;2.87;;;32.10;61.50;;;;;;5009674;28;20850;-81
2022/06/19 06:42:18;;;;;;;19.70;3.43;;;32.40;61.50;;;;;;5027788;28;20194;-81
2022/06/19 06:44:44;;;;;;;8.50;2.53;;;32.50;61.10;;;;;;5010186;28;20243;-81
2022/06/19 06:47:09;;;;;;;10.73;3.15;;;32.30;60.50;;;;;;5027551;28;20179;-81
2022/06/19 06:49:35;;;;;;;19.13;3.47;;;32.10;60.60;;;;;;5027201;28;20180;-81
2022/06/19 06:52:00;;;;;;;23.35;3.13;;;32.50;60.90;;;;;;5026920;28;20279;-81
2022/06/19 06:54:26;;;;;;;12.57;2.88;;;32.80;59.80;;;;;;5026107;28;20203;-82
2022/06/19 06:56:54;;;;;;;14.38;2.97;;;32.30;59.80;;;;;;5008427;28;20182;-81
2022/06/19 06:59:20;;;;;;;4.57;2.28;;;32.10;60.20;;;;;;5026526;28;20564;-81
2022/06/19 07:01:45;;;;;;;10.80;2.90;;;32.00;60.10;;;;;;5008937;28;20223;-81
2022/06/19 07:04:11;;;;;;;19.47;3.50;;;32.00;60.30;;;;;;5008810;28;20260;-81
2022/06/19 07:06:37;;;;;;;15.27;2.67;;;32.10;59.50;;;;;;5027925;28;20180;-81
2022/06/19 07:09:04;;;;;;;11.60;3.20;;;32.30;59.20;;;;;;5009835;28;20176;-81
2022/06/19 07:11:41;;;;;;;15.80;3.33;;;32.40;59.30;;;;;;5008156;28;20193;-82
2022/06/19 07:14:08;;;;;;;14.37;3.50;;;31.90;59.90;;;;;;5005185;28;20173;-82
2022/06/19 07:16:34;;;;;;;12.83;2.63;;;32.30;60.40;;;;;;5017643;28;20184;-78
2022/06/19 07:18:59;;;;;;;18.60;3.00;;;32.40;59.40;;;;;;5000334;28;20714;-80
2022/06/19 07:21:25;;;;;;;16.80;3.80;;;32.30;59.60;;;;;;5006115;28;20193;-82
2022/06/19 07:23:51;;;;;;;21.53;3.00;;;32.50;59.40;;;;;;5009500;28;20571;-82
2022/06/19 07:26:20;;;;;;;10.93;2.80;;;32.40;59.70;;;;;;5027587;28;20230;-82
2022/06/19 07:28:46;;;;;;;12.00;2.83;;;33.00;58.80;;;;;;5022950;28;20181;-82
2022/06/19 07:31:12;;;;;;;11.40;2.80;;;33.10;58.40;;;;;;5003596;28;20563;-83
2022/06/19 07:33:39;;;;;;;14.63;2.80;;;32.80;58.60;;;;;;5015049;28;20186;-82
2022/06/19 07:36:06;;;;;;;13.82;3.25;;;32.90;59.20;;;;;;5014925;28;20753;-83
2022/06/19 07:38:31;;;;;;;12.55;3.17;;;33.40;58.90;;;;;;5015054;28;20184;-82
2022/06/19 07:40:57;;;;;;;9.73;2.53;;;33.90;58.90;;;;;;5015972;28;20204;-82
2022/06/19 07:43:23;;;;;;;14.07;2.97;;;34.00;57.90;;;;;;4996870;28;20180;-83
2022/06/19 07:45:49;;;;;;;17.67;3.25;;;33.70;57.40;;;;;;5000056;28;20157;-80
2022/06/19 07:50:59;;;;;;;14.48;3.33;;;34.90;57.70;;;;;;5015190;28;20203;-77
2022/06/19 07:53:24;;;;;;;11.30;2.97;;;35.80;55.90;;;;;;4997300;28;20192;-78
2022/06/19 07:55:49;;;;;;;20.75;3.45;;;35.30;56.10;;;;;;5014398;28;20255;-78
2022/06/19 07:58:15;;;;;;;18.60;3.35;;;35.50;55.80;;;;;;5014641;28;20702;-80
2022/06/19 08:00:41;;;;;;;15.35;3.13;;;34.90;55.80;;;;;;5018292;28;20240;-78
2022/06/19 08:03:06;;;;;;;13.65;3.50;;;34.00;56.80;;;;;;5001663;28;20219;-79
2022/06/19 08:05:34;;;;;;;17.05;4.25;;;33.70;57.90;;;;;;5018611;28;20164;-79
2022/06/19 08:08:03;;;;;;;16.67;3.38;;;32.90;58.70;;;;;;5019242;28;20184;-79
2022/06/19 08:10:42;;;;;;;19.08;3.17;;;33.10;59.40;;;;;;5019712;28;20195;-81
2022/06/19 08:13:09;;;;;;;14.13;2.80;;;33.10;58.20;;;;;;5017018;28;20172;-78
2022/06/19 08:15:35;;;;;;;9.37;2.50;;;32.60;60.10;;;;;;5013291;28;20427;-77
2022/06/19 08:18:01;;;;;;;9.53;3.20;;;33.00;59.60;;;;;;5013380;28;20228;-79
2022/06/19 08:20:27;;;;;;;9.15;2.75;;;33.90;59.10;;;;;;5014949;28;20263;-78
2022/06/19 08:22:53;;;;;;;15.13;3.72;;;34.90;58.20;;;;;;5014356;28;20648;-79
2022/06/19 08:25:21;;;;;;;16.33;3.17;;;35.20;57.60;;;;;;5012857;28;20184;-79
2022/06/19 08:27:49;;;;;;;11.80;3.30;;;35.30;57.10;;;;;;5013940;28;20286;-78
2022/06/19 08:30:26;;;;;;;13.95;3.47;;;35.10;56.70;;;;;;5013697;28;20263;-78
2022/06/19 08:32:52;;;;;;;9.75;2.97;;;34.80;56.80;;;;;;5013445;28;20184;-79
2022/06/19 08:35:19;;;;;;;18.13;3.80;;;34.70;57.90;;;;;;5012839;28;20584;-79
2022/06/19 08:37:49;;;;;;;11.93;3.58;;;34.70;57.00;;;;;;5013167;28;20212;-80
2022/06/19 08:40:37;;;;;;;20.05;3.63;;;34.60;57.10;;;;;;5015331;28;20551;-78
2022/06/19 08:43:29;;;;;;;14.80;3.30;;;34.30;58.10;;;;;;5014633;28;20176;-79
2022/06/19 08:46:32;;;;;;;17.58;3.63;;;33.60;59.20;;;;;;5016474;28;20168;-80
2022/06/19 08:49:02;;;;;;;8.38;3.10;;;33.80;59.30;;;;;;5019071;28;20263;-80
2022/06/19 08:52:01;;;;;;;17.87;3.60;;;33.60;59.00;;;;;;5019022;28;20199;-80
2022/06/19 08:55:04;;;;;;;20.00;4.27;;;34.10;58.80;;;;;;5015964;28;20193;-80
2022/06/19 08:57:52;;;;;;;20.17;3.90;;;34.30;58.60;;;;;;5014553;28;20176;-80
2022/06/19 09:00:26;;;;;;;15.33;3.47;;;34.20;59.10;;;;;;5017526;28;20201;-79
2022/06/19 09:03:15;;;;;;;11.73;3.00;;;33.70;59.50;;;;;;5010701;28;20199;-78
2022/06/19 09:05:50;;;;;;;31.33;4.67;;;33.70;59.40;;;;;;5013359;28;20482;-78
2022/06/19 09:08:37;;;;;;;6.50;2.90;;;33.70;59.80;;;;;;5013003;28;20442;-78
2022/06/19 09:11:18;;;;;;;11.20;3.77;;;33.50;59.60;;;;;;4995500;28;20200;-78
2022/06/19 09:14:05;;;;;;;13.07;3.67;;;33.30;61.00;;;;;;5013092;28;20421;-78
2022/06/19 09:17:00;;;;;;;12.10;3.30;;;34.00;60.60;;;;;;4995411;28;20427;-79
2022/06/19 09:19:39;;;;;;;12.40;3.17;;;34.40;60.10;;;;;;5013410;28;20672;-79
2022/06/19 09:22:04;;;;;;;14.33;3.60;;;34.30;59.40;;;;;;5015502;28;20730;-79
2022/06/19 09:24:40;;;;;;;17.00;3.83;;;34.70;58.60;;;;;;5005670;28;20196;-80
2022/06/19 09:27:11;;;;;;;15.73;3.78;;;34.50;58.60;;;;;;5015563;28;20252;-80
2022/06/19 09:29:44;;;;;;;11.80;3.55;;;34.60;58.10;;;;;;4997414;28;20177;-79
2022/06/19 09:32:29;;;;;;;14.75;4.13;;;34.30;58.90;;;;;;5015159;28;20201;-80
2022/06/19 09:35:06;;;;;;;22.58;4.05;;;34.20;58.80;;;;;;5015735;28;20180;-80
2022/06/19 09:37:44;;;;;;;13.43;4.07;;;34.60;59.10;;;;;;5015152;28;20176;-80
2022/06/19 09:40:13;;;;;;;15.45;3.50;;;34.60;59.00;;;;;;4998314;28;20204;-79
2022/06/19 09:42:50;;;;;;;21.88;3.30;;;34.80;59.40;;;;;;5012641;28;20164;-78
2022/06/19 09:45:28;;;;;;;14.32;3.45;;;35.10;57.50;;;;;;5010081;28;20176;-79
2022/06/19 09:48:19;;;;;;;20.88;3.78;;;34.70;58.50;;;;;;5014721;28;20652;-80
2022/06/19 09:50:50;;;;;;;13.27;4.03;;;34.00;58.60;;;;;;5008898;28;20243;-80
2022/06/19 09:53:28;;;;;;;18.40;4.15;;;34.30;59.40;;;;;;5013160;28;20240;-80
2022/06/19 09:56:07;;;;;;;17.60;4.13;;;34.50;58.70;;;;;;5008979;28;20187;-80
2022/06/19 09:58:50;;;;;;;21.80;3.97;;;34.50;58.40;;;;;;5009055;28;20226;-80
2022/06/19 10:01:16;;;;;;;14.98;3.53;;;34.60;57.80;;;;;;5016392;28;20265;-81
2022/06/19 10:03:47;;;;;;;16.13;4.15;;;34.70;58.50;;;;;;5015930;28;20180;-81
2022/06/19 10:06:21;;;;;;;18.92;4.38;;;34.70;58.50;;;;;;5017322;28;20184;-81
2022/06/19 10:08:53;;;;;;;20.83;4.18;;;34.70;58.00;;;;;;5017848;28;20172;-80
2022/06/19 10:11:30;;;;;;;34.35;4.80;;;35.20;58.20;;;;;;5017784;28;20200;-80
2022/06/19 10:14:12;;;;;;;20.23;4.10;;;35.50;57.10;;;;;;5000113;28;20180;-80
2022/06/19 10:16:50;;;;;;;24.58;4.60;;;35.60;56.20;;;;;;5000184;28;20218;-81
2022/06/19 10:19:43;;;;;;;29.85;4.50;;;35.90;56.30;;;;;;5018205;28;20180;-81
2022/06/19 10:22:43;;;;;;;23.00;4.30;;;36.50;55.70;;;;;;5017712;28;20242;-81
2022/06/19 10:25:36;;;;;;;19.88;5.13;;;36.30;55.30;;;;;;5017257;28;20180;-80
2022/06/19 10:28:33;;;;;;;22.63;4.82;;;36.30;53.40;;;;;;4999976;28;20200;-81
2022/06/19 10:31:22;;;;;;;25.58;4.28;;;35.70;51.00;;;;;;4999331;28;20200;-80
2022/06/19 10:33:59;;;;;;;26.80;4.70;;;35.80;52.30;;;;;;4999858;28;20180;-81
2022/06/19 10:36:50;;;;;;;26.00;4.00;;;36.20;51.50;;;;;;5016413;28;20164;-80
2022/06/19 10:39:51;;;;;;;34.25;4.57;;;36.30;50.50;;;;;;5016730;28;20216;-81
2022/06/19 10:42:54;;;;;;;22.85;4.05;;;35.90;49.40;;;;;;4999507;28;20189;-81
2022/06/19 10:45:32;;;;;;;17.17;4.50;;;35.80;50.30;;;;;;4997074;28;20176;-81
2022/06/19 10:48:16;;;;;;;28.33;4.65;;;36.40;50.70;;;;;;4998638;28;20172;-82
2022/06/19 10:50:51;;;;;;;21.48;4.57;;;36.70;51.40;;;;;;4999574;28;20204;-81
2022/06/19 10:53:43;;;;;;;24.85;4.43;;;36.80;50.10;;;;;;4996861;28;20180;-81
2022/06/19 10:56:21;;;;;;;21.10;3.72;;;36.90;50.00;;;;;;4996963;28;20210;-81
2022/06/19 10:58:46;;;;;;;24.15;4.32;;;37.10;50.50;;;;;;5000189;28;20158;-82
2022/06/19 11:04:06;;;;;;;24.52;4.68;;;37.40;48.90;;;;;;5003579;28;20221;-80
2022/06/19 11:04:09;;;;;;;23.90;4.47;;;36.70;49.40;;;;;;5017004;28;20168;-79
2022/06/19 11:06:54;;;;;;;24.25;4.55;;;37.10;50.40;;;;;;5010520;28;20238;-79
2022/06/19 11:09:42;;;;;;;28.95;5.82;;;36.80;49.50;;;;;;5022142;28;20151;-79
2022/06/19 11:12:20;;;;;;;16.13;3.45;;;36.80;51.10;;;;;;5017090;28;20224;-76
2022/06/19 11:14:54;;;;;;;18.38;4.10;;;36.80;49.50;;;;;;5016233;28;20284;-77
2022/06/19 11:17:41;;;;;;;18.38;5.25;;;36.90;51.00;;;;;;5016405;28;20625;-76
2022/06/19 11:33:08;;;;;;;18.83;3.65;;;36.70;49.10;;;;;;5812745;23;20233;-80
2022/06/19 11:35:40;;;;;;;11.27;3.33;;;36.30;49.30;;;;;;4983812;28;20169;-80
2022/06/19 11:38:06;;;;;;;25.08;5.18;;;36.60;49.20;;;;;;4995239;28;20535;-81
2022/06/19 11:40:38;;;;;;;39.20;4.95;;;37.20;50.10;;;;;;5000330;28;20374;-80
2022/06/19 11:43:05;;;;;;;21.73;4.80;;;37.20;49.80;;;;;;5018449;28;20153;-81
2022/06/19 11:45:34;;;;;;;21.80;4.82;;;37.40;48.90;;;;;;5002385;28;20267;-82
2022/06/19 11:48:06;;;;;;;21.67;4.90;;;37.40;49.00;;;;;;5000903;28;20184;-83
2022/06/19 11:50:37;;;;;;;19.17;3.95;;;37.40;49.60;;;;;;4987726;28;20185;-82
2022/06/19 11:53:14;;;;;;;19.00;4.40;;;37.40;49.10;;;;;;4975860;28;20177;-81
2022/06/19 11:55:46;;;;;;;23.30;4.90;;;37.50;48.90;;;;;;4993721;28;20172;-82
2022/06/19 11:58:29;;;;;;;12.32;3.72;;;37.70;49.50;;;;;;4983387;28;20177;-79
2022/06/19 12:01:10;;;;;;;17.63;3.50;;;37.20;48.40;;;;;;4981109;28;20205;-80
2022/06/19 12:03:49;;;;;;;23.13;4.75;;;37.00;48.20;;;;;;4976852;28;20174;-79
2022/06/19 12:06:17;;;;;;;18.52;4.15;;;37.00;48.30;;;;;;4960069;28;20173;-80
2022/06/19 12:09:00;;;;;;;22.33;4.32;;;37.70;49.70;;;;;;4989560;28;20203;-80
2022/06/19 12:12:05;;;;;;;30.40;4.85;;;38.30;52.10;;;;;;4981283;28;20192;-79
2022/06/19 12:14:50;;;;;;;20.75;5.47;;;38.90;50.20;;;;;;4991881;28;20214;-80
2022/06/19 12:17:19;;;;;;;27.33;4.85;;;38.60;45.70;;;;;;4980087;28;20281;-80
2022/06/19 12:19:54;;;;;;;30.13;4.47;;;38.20;49.50;;;;;;4986895;28;20189;-79
2022/06/19 12:22:29;;;;;;;27.50;4.95;;;38.50;47.50;;;;;;4974521;28;20228;-79
2022/06/19 12:25:07;;;;;;;29.83;4.15;;;38.20;47.20;;;;;;4975249;28;20765;-79
2022/06/19 12:27:40;;;;;;;18.83;4.05;;;38.50;49.10;;;;;;4988055;28;20186;-79
2022/06/19 12:30:14;;;;;;;18.75;4.90;;;38.20;46.50;;;;;;4972510;28;20569;-79
2022/06/19 12:32:46;;;;;;;20.55;6.03;;;37.80;50.00;;;;;;4963471;28;20178;-81
2022/06/19 12:35:33;;;;;;;32.53;6.20;;;38.30;50.10;;;;;;4975770;28;20185;-79
2022/06/19 12:37:59;;;;;;;20.92;4.22;;;38.30;49.10;;;;;;4970106;28;20178;-80
2022/06/19 12:40:36;;;;;;;23.77;5.20;;;39.00;51.10;;;;;;4987672;28;20624;-79
2022/06/19 12:43:34;;;;;;;13.70;4.80;;;39.30;48.50;;;;;;4989010;28;20177;-80
2022/06/19 12:46:03;;;;;;;23.85;5.05;;;38.90;48.70;;;;;;4980729;28;20192;-80
2022/06/19 12:48:57;;;;;;;23.45;5.05;;;39.20;51.40;;;;;;4986165;28;20182;-79
2022/06/19 12:51:35;;;;;;;25.00;4.55;;;38.60;47.60;;;;;;4960457;28;20246;-79
2022/06/19 12:54:21;;;;;;;23.63;4.53;;;38.60;46.90;;;;;;4977388;28;20173;-81
2022/06/19 12:57:11;;;;;;;21.00;5.55;;;38.60;47.50;;;;;;4961309;28;20193;-80
2022/06/19 12:59:42;;;;;;;17.85;4.38;;;39.20;46.80;;;;;;4960496;28;20296;-81
2022/06/19 13:02:16;;;;;;;21.52;5.22;;;39.40;50.50;;;;;;4978188;28;20202;-80
2022/06/19 13:05:01;;;;;;;20.60;4.78;;;39.40;47.10;;;;;;4960492;28;20181;-80
2022/06/19 13:08:13;;;;;;;15.18;4.07;;;39.10;51.30;;;;;;4959846;28;20170;-80
2022/06/19 13:10:52;;;;;;;23.50;5.32;;;39.20;47.70;;;;;;4883288;29;20351;-80
2022/06/19 13:13:37;;;;;;;32.28;4.78;;;39.30;49.30;;;;;;4969166;28;20205;-80
2022/06/19 13:16:24;;;;;;;18.83;4.43;;;39.20;48.80;;;;;;4978220;28;20236;-80
2022/06/19 13:19:17;;;;;;;21.83;4.88;;;39.60;50.70;;;;;;4960759;28;20313;-80
2022/06/19 13:22:03;;;;;;;16.85;4.88;;;39.10;50.60;;;;;;4977844;28;20206;-80
2022/06/19 13:24:42;;;;;;;25.67;4.78;;;39.20;52.30;;;;;;4978188;28;20181;-80
2022/06/19 13:27:32;;;;;;;23.38;4.55;;;39.40;49.20;;;;;;4978746;28;20559;-80
2022/06/19 13:30:36;;;;;;;28.83;4.53;;;39.50;52.30;;;;;;4960431;28;20193;-80
2022/06/19 13:33:37;;;;;;;19.15;4.63;;;39.50;51.60;;;;;;4960996;28;20204;-80
2022/06/19 13:36:14;;;;;;;17.42;4.57;;;39.60;50.80;;;;;;4977905;28;20629;-80
2022/06/19 13:39:13;;;;;;;19.48;4.82;;;39.20;50.30;;;;;;4977889;28;20180;-81
2022/06/19 13:42:12;;;;;;;21.45;5.43;;;39.00;51.00;;;;;;4946794;28;20205;-80
2022/06/19 13:44:51;;;;;;;20.25;5.13;;;39.20;51.00;;;;;;4977348;28;20174;-80
2022/06/19 13:47:46;;;;;;;23.23;4.88;;;39.20;50.80;;;;;;4959782;28;20182;-80
2022/06/19 13:50:24;;;;;;;25.10;5.65;;;38.80;52.20;;;;;;4975283;28;20220;-81
2022/06/19 13:53:25;;;;;;;18.25;4.47;;;39.00;53.10;;;;;;4977391;28;20185;-80
2022/06/19 13:56:09;;;;;;;16.48;4.93;;;39.00;53.20;;;;;;4959655;28;20539;-80
2022/06/19 13:58:46;;;;;;;23.10;5.20;;;38.80;52.70;;;;;;4976974;28;20166;-80
2022/06/19 14:01:21;;;;;;;19.63;5.63;;;38.40;52.90;;;;;;4977365;28;20776;-80
2022/06/19 14:07:05;;;;;;;22.58;4.72;;;38.50;54.60;;;;;;4977959;28;20205;-80
2022/06/19 14:09:42;;;;;;;23.13;4.28;;;38.60;52.70;;;;;;4976927;28;20192;-80
2022/06/19 14:12:13;;;;;;;22.40;5.50;;;38.60;53.00;;;;;;4976903;28;20197;-80
2022/06/19 14:14:45;;;;;;;20.35;5.05;;;38.40;54.20;;;;;;4959347;28;20177;-80
2022/06/19 14:17:24;;;;;;;21.38;4.80;;;38.40;52.90;;;;;;4977200;28;20174;-80
2022/06/19 14:20:31;;;;;;;19.42;4.38;;;38.40;53.60;;;;;;4976751;28;20199;-80
2022/06/19 14:23:14;;;;;;;18.52;4.85;;;38.40;54.40;;;;;;4959228;28;20268;-80
2022/06/19 14:25:58;;;;;;;18.35;4.97;;;37.80;52.10;;;;;;4959236;28;20193;-80
2022/06/19 14:28:48;;;;;;;25.70;5.40;;;37.40;53.00;;;;;;4959132;28;20170;-80
2022/06/19 14:31:18;;;;;;;20.70;4.85;;;37.00;53.30;;;;;;4959400;28;20641;-80
2022/06/19 14:33:45;;;;;;;20.55;4.85;;;37.00;53.40;;;;;;4963476;28;20208;-80
2022/06/19 14:36:17;;;;;;;15.02;4.63;;;37.20;53.70;;;;;;4962951;28;20178;-80
2022/06/19 14:38:43;;;;;;;18.55;4.80;;;37.20;54.00;;;;;;4980677;28;20169;-80
2022/06/19 14:41:12;;;;;;;20.27;5.03;;;37.50;54.00;;;;;;4963078;28;20267;-80
2022/06/19 14:43:42;;;;;;;32.33;5.50;;;37.50;54.00;;;;;;4980868;28;20315;-80
2022/06/19 14:46:23;;;;;;;23.58;5.38;;;37.30;53.70;;;;;;4963134;28;20188;-80
2022/06/19 14:49:03;;;;;;;17.52;4.53;;;37.10;53.80;;;;;;4980212;28;20511;-80
2022/06/19 14:52:10;;;;;;;30.17;5.53;;;37.10;54.40;;;;;;4979925;28;20194;-80
2022/06/19 14:55:01;;;;;;;18.42;4.40;;;37.00;53.80;;;;;;4901590;29;20187;-80
2022/06/19 14:57:32;;;;;;;22.48;5.18;;;37.00;56.40;;;;;;4901448;29;20189;-80
2022/06/19 15:00:12;;;;;;;20.02;5.03;;;37.20;54.20;;;;;;4937357;28;20213;-80
2022/06/19 15:02:52;;;;;;;21.80;5.20;;;36.90;55.00;;;;;;4961878;28;20289;-80
2022/06/19 15:05:32;;;;;;;13.95;4.47;;;36.90;55.20;;;;;;4962474;28;20173;-80
2022/06/19 15:08:15;;;;;;;24.73;5.93;;;36.90;55.20;;;;;;4962272;28;20554;-80
2022/06/19 15:11:00;;;;;;;19.58;5.40;;;36.80;55.60;;;;;;4963522;28;20202;-81
2022/06/19 15:13:29;;;;;;;22.88;5.00;;;36.70;55.20;;;;;;4963141;28;20209;-80
2022/06/19 15:15:58;;;;;;;20.00;4.90;;;36.60;55.60;;;;;;4981028;28;20196;-80
2022/06/19 15:18:33;;;;;;;13.40;4.75;;;36.60;55.50;;;;;;4963044;28;20185;-80
2022/06/19 15:21:08;;;;;;;24.45;4.80;;;36.50;55.90;;;;;;4979787;28;20205;-80
2022/06/19 15:23:36;;;;;;;20.17;4.55;;;36.50;56.70;;;;;;4962981;28;20178;-80
2022/06/19 15:26:29;;;;;;;17.23;5.60;;;36.30;57.50;;;;;;4962999;28;20261;-80
2022/06/19 15:28:54;;;;;;;15.80;5.10;;;36.30;57.00;;;;;;4962508;28;20244;-80
2022/06/19 15:31:20;;;;;;;14.18;5.75;;;36.80;57.10;;;;;;4980256;28;20676;-80
2022/06/19 15:33:50;;;;;;;14.65;5.30;;;36.70;56.80;;;;;;4962920;28;20197;-80
2022/06/19 15:36:18;;;;;;;25.95;5.63;;;36.60;56.40;;;;;;4962868;28;20174;-80
2022/06/19 15:38:52;;;;;;;14.40;4.82;;;36.50;57.10;;;;;;4979496;28;20174;-81
2022/06/19 15:41:39;;;;;;;32.90;5.25;;;36.60;57.30;;;;;;4978785;28;20236;-80
2022/06/19 15:44:17;;;;;;;13.95;5.22;;;36.10;57.20;;;;;;4961217;28;20177;-80
2022/06/19 15:47:11;;;;;;;21.58;6.85;;;35.80;57.50;;;;;;4962132;28;20261;-80
2022/06/19 15:49:45;;;;;;;26.02;5.57;;;35.90;58.70;;;;;;4962142;28;20182;-80
2022/06/19 15:52:37;;;;;;;16.27;4.93;;;36.20;57.60;;;;;;4979789;28;20205;-80
2022/06/19 15:55:14;;;;;;;24.45;5.68;;;36.20;58.80;;;;;;4978989;28;20649;-80
2022/06/19 15:57:40;;;;;;;17.45;5.43;;;35.90;60.30;;;;;;4979170;28;20254;-80
2022/06/19 16:00:18;;;;;;;17.00;4.57;;;35.60;61.70;;;;;;4978464;28;20232;-80
2022/06/19 16:02:47;;;;;;;21.50;5.43;;;35.20;63.60;;;;;;4978549;28;20230;-80
2022/06/19 16:05:27;;;;;;;22.60;6.18;;;34.70;65.30;;;;;;4978504;28;20261;-79
2022/06/19 16:07:54;;;;;;;22.37;6.00;;;34.30;65.80;;;;;;4961747;28;20210;-80
2022/06/19 16:10:22;;;;;;;20.47;5.23;;;34.20;66.10;;;;;;4962434;28;20182;-80
2022/06/19 16:13:06;;;;;;;23.83;5.20;;;34.30;66.70;;;;;;4962640;28;20184;-80
2022/06/19 16:15:31;;;;;;;18.03;6.03;;;34.30;66.70;;;;;;4962412;28;20228;-80
2022/06/19 16:18:03;;;;;;;21.27;5.53;;;34.40;66.80;;;;;;4981084;28;20213;-80
2022/06/19 16:20:33;;;;;;;21.13;4.70;;;34.10;66.60;;;;;;4966984;28;20237;-80
2022/06/19 16:22:59;;;;;;;21.83;5.17;;;34.10;67.40;;;;;;4964322;28;20428;-80
2022/06/19 16:25:42;;;;;;;13.27;4.23;;;33.90;68.10;;;;;;4979240;28;20409;-80
2022/06/19 16:28:30;;;;;;;21.73;5.40;;;33.80;68.10;;;;;;4978271;28;20428;-80
2022/06/19 16:31:00;;;;;;;16.90;4.20;;;33.60;67.50;;;;;;4979236;28;20449;-79
2022/06/19 16:33:29;;;;;;;19.30;5.57;;;33.60;68.50;;;;;;4979373;28;20433;-80
2022/06/19 16:44:23;;;;;;;18.50;4.13;;;33.10;70.90;;;;;;4978129;28;20448;-79
2022/06/19 16:46:54;;;;;;;27.90;4.60;;;32.80;72.50;;;;;;4978260;28;20412;-79
2022/06/19 16:49:32;;;;;;;14.37;4.50;;;32.70;72.70;;;;;;4960534;28;20445;-79
2022/06/19 16:52:11;;;;;;;18.83;4.17;;;32.40;73.40;;;;;;4987840;28;20829;-80
2022/06/19 16:54:59;;;;;;;17.80;4.40;;;32.30;73.90;;;;;;4973324;28;20414;-79
2022/06/19 16:57:34;;;;;;;17.03;5.00;;;32.20;75.10;;;;;;4979457;28;20419;-80
2022/06/19 17:00:16;;;;;;;16.03;3.73;;;32.20;74.90;;;;;;4997051;28;20456;-79
2022/06/19 17:03:11;;;;;;;13.97;4.50;;;32.20;74.50;;;;;;4983898;28;21065;-81
2022/06/19 17:05:44;;;;;;;17.97;4.40;;;32.30;76.40;;;;;;4978190;28;20416;-80
2022/06/19 17:10:59;;;;;;;12.90;4.97;;;32.30;75.00;;;;;;5002866;28;20532;-80
2022/06/19 17:13:27;;;;;;;19.37;5.10;;;32.20;75.30;;;;;;4983996;28;20412;-81
2022/06/19 17:15:55;;;;;;;17.63;4.97;;;32.10;76.20;;;;;;5002932;28;20536;-80
2022/06/19 17:18:23;;;;;;;17.63;4.70;;;32.10;75.70;;;;;;4985056;28;20420;-80
2022/06/19 17:20:49;;;;;;;19.73;4.50;;;32.10;76.80;;;;;;5002867;28;20464;-79
2022/06/19 17:23:24;;;;;;;16.00;4.43;;;31.90;76.50;;;;;;5002296;28;20430;-80
2022/06/19 17:26:07;;;;;;;17.60;4.50;;;31.80;78.00;;;;;;4984971;28;20411;-80
2022/06/19 17:28:49;;;;;;;28.87;4.80;;;31.60;78.40;;;;;;5001685;28;20427;-80
2022/06/19 17:31:22;;;;;;;12.93;4.53;;;31.20;79.10;;;;;;5000321;28;20919;-80
2022/06/19 17:33:47;;;;;;;17.77;4.57;;;30.80;79.90;;;;;;4983714;28;20511;-81
2022/06/19 17:36:17;;;;;;;15.87;3.73;;;30.40;80.70;;;;;;4979446;28;20460;-79
2022/06/19 17:38:56;;;;;;;17.90;3.70;;;30.00;81.00;;;;;;4977755;28;20650;-78
2022/06/19 17:41:38;;;;;;;12.20;4.40;;;29.70;82.60;;;;;;4973630;28;20995;-79
2022/06/19 17:44:06;;;;;;;16.90;4.60;;;29.50;82.90;;;;;;4973765;28;20759;-78
2022/06/19 17:46:34;;;;;;;19.10;4.60;;;29.30;83.90;;;;;;4973543;28;20942;-78
2022/06/19 17:49:07;;;;;;;18.20;3.93;;;29.10;85.30;;;;;;4973100;28;20409;-78
2022/06/19 17:51:42;;;;;;;15.67;4.77;;;28.90;85.90;;;;;;4956023;28;20441;-79
2022/06/19 17:54:08;;;;;;;26.10;6.00;;;28.60;85.30;;;;;;4973654;28;20481;-78
2022/06/19 17:56:38;;;;;;;14.03;4.20;;;28.60;85.30;;;;;;4973390;28;20499;-79
2022/06/19 17:59:36;;;;;;;13.63;4.33;;;28.40;84.90;;;;;;4974058;28;20188;-78
2022/06/19 18:02:10;;;;;;;23.60;5.20;;;28.30;85.20;;;;;;4977519;28;20443;-78
2022/06/19 18:05:05;;;;;;;17.30;4.03;;;28.00;85.50;;;;;;4988263;28;20503;-77
2022/06/19 18:07:34;;;;;;;18.10;4.63;;;27.90;84.40;;;;;;4954899;28;20936;-78
2022/06/19 18:10:05;;;;;;;17.90;4.87;;;27.80;84.50;;;;;;4973326;28;20408;-77
2022/06/19 18:12:40;;;;;;;10.13;3.73;;;27.70;85.00;;;;;;4973228;28;20424;-78
2022/06/19 18:18:42;;;;;;;18.93;4.60;;;27.60;85.70;;;;;;4956392;28;20833;-78